sensor_id;sensor_type;location;lat;lon;timestamp;pressure;altitude;pressure_sealevel;temperature;humidity
56630;BME280;42502;40.732;-74.254;2023-08-07T00:00:09;100544.22;;;33.21;37.47
56630;BME280;42502;40.732;-74.254;2023-08-07T00:02:10;100543.81;;;33.19;37.22
56630;BME280;42502;40.732;-74.254;2023-08-07T00:04:10;100546.25;;;33.20;37.45
56630;BME280;42502;40.732;-74.254;2023-08-07T00:06:14;100537.66;;;33.20;37.55
56630;BME280;42502;40.732;-74.254;2023-08-07T00:08:15;100545.50;;;33.16;37.18
56630;BME280;42502;40.732;-74.254;2023-08-07T00:10:15;100540.22;;;33.15;37.55
56630;BME280;42502;40.732;-74.254;2023-08-07T00:12:18;100545.47;;;33.20;37.38
56630;BME280;42502;40.732;-74.254;2023-08-07T00:14:19;100536.50;;;33.18;37.24
56630;BME280;42502;40.732;-74.254;2023-08-07T00:16:20;100540.94;;;33.19;37.50
56630;BME280;42502;40.732;-74.254;2023-08-07T00:18:21;100543.81;;;33.19;37.52
56630;BME280;42502;40.732;-74.254;2023-08-07T00:20:22;100538.09;;;33.19;37.25
56630;BME280;42502;40.732;-74.254;2023-08-07T00:22:23;100543.00;;;33.18;37.50
56630;BME280;42502;40.732;-74.254;2023-08-07T00:24:23;100545.88;;;33.18;37.46
56630;BME280;42502;40.732;-74.254;2023-08-07T00:26:24;100543.00;;;33.18;37.12
56630;BME280;42502;40.732;-74.254;2023-08-07T00:28:25;100531.19;;;33.16;37.17
56630;BME280;42502;40.732;-74.254;2023-08-07T00:30:26;100540.59;;;33.17;37.22
56630;BME280;42502;40.732;-74.254;2023-08-07T00:32:30;100533.63;;;33.18;37.29
56630;BME280;42502;40.732;-74.254;2023-08-07T00:34:31;100527.06;;;33.17;37.59
56630;BME280;42502;40.732;-74.254;2023-08-07T00:36:32;100529.16;;;33.17;37.11
56630;BME280;42502;40.732;-74.254;2023-08-07T00:38:37;100523.41;;;33.17;37.06
56630;BME280;42502;40.732;-74.254;2023-08-07T00:40:39;100518.50;;;33.17;37.19
56630;BME280;42502;40.732;-74.254;2023-08-07T00:42:43;100524.31;;;33.14;36.98
56630;BME280;42502;40.732;-74.254;2023-08-07T00:44:43;100530.38;;;33.16;37.06
56630;BME280;42502;40.732;-74.254;2023-08-07T00:46:44;100530.38;;;33.16;37.51
56630;BME280;42502;40.732;-74.254;2023-08-07T00:48:45;100534.03;;;33.16;37.19
56630;BME280;42502;40.732;-74.254;2023-08-07T00:50:47;100528.78;;;33.15;37.48
56630;BME280;42502;40.732;-74.254;2023-08-07T00:52:49;100541.03;;;33.15;37.50
56630;BME280;42502;40.732;-74.254;2023-08-07T00:54:49;100545.94;;;33.15;37.53
56630;BME280;42502;40.732;-74.254;2023-08-07T00:56:50;100544.78;;;33.12;37.02
56630;BME280;42502;40.732;-74.254;2023-08-07T00:58:52;100551.66;;;33.15;37.39
56630;BME280;42502;40.732;-74.254;2023-08-07T01:00:57;100552.94;;;33.14;37.54
56630;BME280;42502;40.732;-74.254;2023-08-07T01:02:59;100548.81;;;33.15;37.26
56630;BME280;42502;40.732;-74.254;2023-08-07T01:05:00;100558.22;;;33.15;37.18
56630;BME280;42502;40.732;-74.254;2023-08-07T01:07:03;100549.25;;;33.13;37.21
56630;BME280;42502;40.732;-74.254;2023-08-07T01:09:04;100543.06;;;33.15;37.53
56630;BME280;42502;40.732;-74.254;2023-08-07T01:14:00;100560.69;;;33.13;37.58
56630;BME280;42502;40.732;-74.254;2023-08-07T01:16:02;100549.69;;;33.11;37.31
56630;BME280;42502;40.732;-74.254;2023-08-07T01:18:08;100564.00;;;33.11;37.51
56630;BME280;42502;40.732;-74.254;2023-08-07T01:20:09;100558.28;;;33.11;37.19
56630;BME280;42502;40.732;-74.254;2023-08-07T01:22:13;100553.00;;;33.10;37.10
56630;BME280;42502;40.732;-74.254;2023-08-07T01:24:14;100557.19;;;33.05;37.42
56630;BME280;42502;40.732;-74.254;2023-08-07T01:26:17;100574.31;;;33.09;37.20
56630;BME280;42502;40.732;-74.254;2023-08-07T01:28:29;100575.53;;;33.08;37.45
56630;BME280;42502;40.732;-74.254;2023-08-07T01:30:37;100569.81;;;33.08;37.07
56630;BME280;42502;40.732;-74.254;2023-08-07T01:35:06;100568.28;;;33.03;37.25
56630;BME280;42502;40.732;-74.254;2023-08-07T01:37:10;100571.06;;;33.07;37.44
56630;BME280;42502;40.732;-74.254;2023-08-07T01:39:12;100576.88;;;33.03;37.43
56630;BME280;42502;40.732;-74.254;2023-08-07T01:41:12;100582.97;;;33.05;37.22
56630;BME280;42502;40.732;-74.254;2023-08-07T01:43:13;100582.97;;;33.05;37.23
56630;BME280;42502;40.732;-74.254;2023-08-07T01:45:22;100582.59;;;33.03;37.35
56630;BME280;42502;40.732;-74.254;2023-08-07T01:47:23;100579.75;;;33.03;37.56
56630;BME280;42502;40.732;-74.254;2023-08-07T01:49:24;100590.41;;;33.03;37.47
56630;BME280;42502;40.732;-74.254;2023-08-07T01:51:25;100589.56;;;33.02;37.07
56630;BME280;42502;40.732;-74.254;2023-08-07T01:53:26;100595.28;;;33.02;37.31
56630;BME280;42502;40.732;-74.254;2023-08-07T01:55:26;100584.72;;;32.99;37.08
56630;BME280;42502;40.732;-74.254;2023-08-07T01:57:27;100588.78;;;33.02;37.46
56630;BME280;42502;40.732;-74.254;2023-08-07T01:59:28;100588.78;;;33.02;37.57
56630;BME280;42502;40.732;-74.254;2023-08-07T02:01:29;100590.84;;;33.01;37.25
56630;BME280;42502;40.732;-74.254;2023-08-07T02:03:30;100587.97;;;33.01;37.13
56630;BME280;42502;40.732;-74.254;2023-08-07T02:05:30;100590.84;;;33.01;37.12
56630;BME280;42502;40.732;-74.254;2023-08-07T02:07:31;100590.47;;;32.99;37.25
56630;BME280;42502;40.732;-74.254;2023-08-07T02:09:32;100586.34;;;33.00;37.58
56630;BME280;42502;40.732;-74.254;2023-08-07T02:11:33;100582.41;;;32.94;37.06
56630;BME280;42502;40.732;-74.254;2023-08-07T02:13:34;100582.69;;;33.00;37.50
56630;BME280;42502;40.732;-74.254;2023-08-07T02:15:34;100582.69;;;33.00;37.22
56630;BME280;42502;40.732;-74.254;2023-08-07T02:17:35;100584.38;;;32.97;37.43
56630;BME280;42502;40.732;-74.254;2023-08-07T02:19:42;100575.91;;;32.93;37.14
56630;BME280;42502;40.732;-74.254;2023-08-07T02:21:42;100585.56;;;33.00;37.18
56630;BME280;42502;40.732;-74.254;2023-08-07T02:23:43;100583.16;;;32.98;37.06
56630;BME280;42502;40.732;-74.254;2023-08-07T02:25:44;100584.38;;;32.97;37.33
56630;BME280;42502;40.732;-74.254;2023-08-07T02:27:45;100572.94;;;32.97;37.26
56630;BME280;42502;40.732;-74.254;2023-08-07T02:29:46;100564.34;;;32.97;37.49
56630;BME280;42502;40.732;-74.254;2023-08-07T02:31:47;100563.56;;;32.97;37.17
56630;BME280;42502;40.732;-74.254;2023-08-07T02:33:48;100572.16;;;32.97;37.26
56630;BME280;42502;40.732;-74.254;2023-08-07T02:35:49;100568.56;;;32.92;37.38
56630;BME280;42502;40.732;-74.254;2023-08-07T02:37:51;100571.75;;;32.94;37.07
56630;BME280;42502;40.732;-74.254;2023-08-07T02:39:52;100575.50;;;32.91;37.24
56630;BME280;42502;40.732;-74.254;2023-08-07T02:41:54;100575.16;;;32.89;37.42
56630;BME280;42502;40.732;-74.254;2023-08-07T02:43:55;100576.69;;;32.94;37.39
56630;BME280;42502;40.732;-74.254;2023-08-07T02:45:56;100568.56;;;32.92;37.65
56630;BME280;42502;40.732;-74.254;2023-08-07T02:47:56;100548.31;;;32.83;37.54
56630;BME280;42502;40.732;-74.254;2023-08-07T02:49:57;100565.69;;;32.92;37.01
56630;BME280;42502;40.732;-74.254;2023-08-07T02:51:58;100563.28;;;32.91;37.05
56630;BME280;42502;40.732;-74.254;2023-08-07T02:53:59;100567.75;;;32.92;37.14
56630;BME280;42502;40.732;-74.254;2023-08-07T02:56:00;100562.47;;;32.90;37.67
56630;BME280;42502;40.732;-74.254;2023-08-07T02:58:00;100563.72;;;32.89;37.30
56630;BME280;42502;40.732;-74.254;2023-08-07T03:00:01;100571.84;;;32.91;37.13
56630;BME280;42502;40.732;-74.254;2023-08-07T03:02:03;100574.38;;;32.89;37.34
56630;BME280;42502;40.732;-74.254;2023-08-07T03:04:04;100580.88;;;32.89;37.64
56630;BME280;42502;40.732;-74.254;2023-08-07T03:06:04;100577.66;;;32.87;37.50
56630;BME280;42502;40.732;-74.254;2023-08-07T03:08:05;100584.53;;;32.90;37.72
56630;BME280;42502;40.732;-74.254;2023-08-07T03:10:06;100580.09;;;32.89;38.34
56630;BME280;42502;40.732;-74.254;2023-08-07T03:12:08;100575.16;;;32.89;37.89
56630;BME280;42502;40.732;-74.254;2023-08-07T03:14:09;100573.91;;;32.90;37.90
56630;BME280;42502;40.732;-74.254;2023-08-07T03:16:12;100575.97;;;32.90;38.35
56630;BME280;42502;40.732;-74.254;2023-08-07T03:18:13;100582.94;;;32.89;37.79
56630;BME280;42502;40.732;-74.254;2023-08-07T03:20:13;100584.53;;;32.90;38.35
56630;BME280;42502;40.732;-74.254;2023-08-07T03:22:14;100578.81;;;32.90;37.97
56630;BME280;42502;40.732;-74.254;2023-08-07T03:24:18;100582.94;;;32.89;38.31
56630;BME280;42502;40.732;-74.254;2023-08-07T03:26:24;100575.97;;;32.90;38.27
56630;BME280;42502;40.732;-74.254;2023-08-07T03:28:25;100575.97;;;32.90;38.11
56630;BME280;42502;40.732;-74.254;2023-08-07T03:30:28;100574.38;;;32.89;37.99
56630;BME280;42502;40.732;-74.254;2023-08-07T03:32:32;100576.41;;;32.88;38.12
56630;BME280;42502;40.732;-74.254;2023-08-07T03:34:33;100574.38;;;32.89;37.98
56630;BME280;42502;40.732;-74.254;2023-08-07T03:36:34;100570.31;;;32.86;38.34
56630;BME280;42502;40.732;-74.254;2023-08-07T03:38:34;100568.25;;;32.87;38.50
56630;BME280;42502;40.732;-74.254;2023-08-07T03:40:35;100566.66;;;32.86;37.95
56630;BME280;42502;40.732;-74.254;2023-08-07T03:42:36;100564.59;;;32.86;38.55
56630;BME280;42502;40.732;-74.254;2023-08-07T03:44:37;100557.34;;;32.82;38.06
56630;BME280;42502;40.732;-74.254;2023-08-07T03:46:41;100560.56;;;32.84;38.46
56630;BME280;42502;40.732;-74.254;2023-08-07T03:48:41;100560.22;;;32.82;38.45
56630;BME280;42502;40.732;-74.254;2023-08-07T03:50:42;100558.94;;;32.83;38.09
56630;BME280;42502;40.732;-74.254;2023-08-07T03:52:46;100564.66;;;32.83;38.15
56630;BME280;42502;40.732;-74.254;2023-08-07T03:54:49;100563.88;;;32.82;38.45
56630;BME280;42502;40.732;-74.254;2023-08-07T03:56:50;100551.69;;;32.78;38.09
56630;BME280;42502;40.732;-74.254;2023-08-07T03:58:51;100554.50;;;32.82;38.05
56630;BME280;42502;40.732;-74.254;2023-08-07T04:00:52;100549.28;;;32.76;37.96
56630;BME280;42502;40.732;-74.254;2023-08-07T04:02:56;100553.31;;;32.79;38.14
56630;BME280;42502;40.732;-74.254;2023-08-07T04:04:57;100541.97;;;32.75;38.16
56630;BME280;42502;40.732;-74.254;2023-08-07T04:06:58;100553.75;;;32.78;38.40
56630;BME280;42502;40.732;-74.254;2023-08-07T04:08:58;100553.75;;;32.78;37.82
56630;BME280;42502;40.732;-74.254;2023-08-07T04:11:05;100555.00;;;32.76;38.54
56630;BME280;42502;40.732;-74.254;2023-08-07T04:13:06;100552.59;;;32.75;37.99
56630;BME280;42502;40.732;-74.254;2023-08-07T04:15:07;100562.00;;;32.75;38.06
56630;BME280;42502;40.732;-74.254;2023-08-07T04:17:09;100557.84;;;32.76;37.86
56630;BME280;42502;40.732;-74.254;2023-08-07T04:19:10;100571.00;;;32.74;37.94
56630;BME280;42502;40.732;-74.254;2023-08-07T04:21:10;100564.13;;;32.71;38.12
56630;BME280;42502;40.732;-74.254;2023-08-07T04:23:14;100566.97;;;32.71;37.91
56630;BME280;42502;40.732;-74.254;2023-08-07T04:25:15;100572.25;;;32.73;38.01
56630;BME280;42502;40.732;-74.254;2023-08-07T04:27:16;100572.69;;;32.71;38.18
56630;BME280;42502;40.732;-74.254;2023-08-07T04:29:16;100563.75;;;32.69;37.98
56630;BME280;42502;40.732;-74.254;2023-08-07T04:31:17;100557.59;;;32.71;38.03
56630;BME280;42502;40.732;-74.254;2023-08-07T04:33:19;100564.13;;;32.71;38.07
56630;BME280;42502;40.732;-74.254;2023-08-07T04:35:20;100560.91;;;32.69;38.09
56630;BME280;42502;40.732;-74.254;2023-08-07T04:37:21;100533.31;;;32.59;38.43
56630;BME280;42502;40.732;-74.254;2023-08-07T04:39:22;100544.19;;;32.68;38.33
56630;BME280;42502;40.732;-74.254;2023-08-07T04:41:23;100545.41;;;32.67;37.83
56630;BME280;42502;40.732;-74.254;2023-08-07T04:43:24;100544.22;;;32.64;37.75
56630;BME280;42502;40.732;-74.254;2023-08-07T04:45:25;100533.66;;;32.61;38.28
56630;BME280;42502;40.732;-74.254;2023-08-07T04:47:28;100535.63;;;32.64;38.21
56630;BME280;42502;40.732;-74.254;2023-08-07T04:49:31;100528.78;;;32.62;38.24
56630;BME280;42502;40.732;-74.254;2023-08-07T04:51:32;100531.19;;;32.63;38.02
56630;BME280;42502;40.732;-74.254;2023-08-07T04:53:33;100533.22;;;32.63;38.16
56630;BME280;42502;40.732;-74.254;2023-08-07T04:55:34;100538.13;;;32.62;37.97
56630;BME280;42502;40.732;-74.254;2023-08-07T04:57:35;100530.09;;;32.57;38.12
56630;BME280;42502;40.732;-74.254;2023-08-07T04:59:38;100519.00;;;32.59;37.84
56630;BME280;42502;40.732;-74.254;2023-08-07T05:01:39;100520.25;;;32.58;38.18
56630;BME280;42502;40.732;-74.254;2023-08-07T05:03:43;100525.63;;;32.56;38.19
56630;BME280;42502;40.732;-74.254;2023-08-07T05:05:44;100524.72;;;32.59;38.10
56630;BME280;42502;40.732;-74.254;2023-08-07T05:07:45;100525.97;;;32.58;38.20
56630;BME280;42502;40.732;-74.254;2023-08-07T05:09:45;100527.25;;;32.57;38.01
56630;BME280;42502;40.732;-74.254;2023-08-07T05:11:46;100524.38;;;32.57;38.26
56630;BME280;42502;40.732;-74.254;2023-08-07T05:13:47;100525.63;;;32.56;38.00
56630;BME280;42502;40.732;-74.254;2023-08-07T05:15:48;100519.91;;;32.56;38.08
56630;BME280;42502;40.732;-74.254;2023-08-07T05:17:51;100513.38;;;32.55;37.87
56630;BME280;42502;40.732;-74.254;2023-08-07T05:19:52;100502.34;;;32.54;37.86
56630;BME280;42502;40.732;-74.254;2023-08-07T05:21:56;100510.16;;;32.53;38.11
56630;BME280;42502;40.732;-74.254;2023-08-07T05:23:57;100512.22;;;32.53;37.82
56630;BME280;42502;40.732;-74.254;2023-08-07T05:25:58;100514.25;;;32.52;37.71
56630;BME280;42502;40.732;-74.254;2023-08-07T05:27:58;100493.59;;;32.45;37.78
56630;BME280;42502;40.732;-74.254;2023-08-07T05:30:02;100504.06;;;32.51;38.02
56630;BME280;42502;40.732;-74.254;2023-08-07T05:32:03;100500.03;;;32.49;37.78
56630;BME280;42502;40.732;-74.254;2023-08-07T05:34:04;100495.94;;;32.50;37.75
56630;BME280;42502;40.732;-74.254;2023-08-07T05:36:05;100493.53;;;32.48;38.04
56630;BME280;42502;40.732;-74.254;2023-08-07T05:38:06;100491.53;;;32.45;37.78
56630;BME280;42502;40.732;-74.254;2023-08-07T05:40:10;100492.69;;;32.48;37.71
56630;BME280;42502;40.732;-74.254;2023-08-07T05:42:12;100493.53;;;32.48;37.80
56630;BME280;42502;40.732;-74.254;2023-08-07T05:44:13;100493.13;;;32.46;37.91
56630;BME280;42502;40.732;-74.254;2023-08-07T05:46:14;100498.41;;;32.48;37.72
56630;BME280;42502;40.732;-74.254;2023-08-07T05:48:15;100489.03;;;32.47;37.62
56630;BME280;42502;40.732;-74.254;2023-08-07T05:50:16;100486.63;;;32.46;37.86
56630;BME280;42502;40.732;-74.254;2023-08-07T05:52:18;100488.69;;;32.45;37.74
56630;BME280;42502;40.732;-74.254;2023-08-07T05:54:19;100487.06;;;32.44;37.74
56630;BME280;42502;40.732;-74.254;2023-08-07T05:56:22;100484.66;;;32.42;37.91
56630;BME280;42502;40.732;-74.254;2023-08-07T05:58:23;100486.28;;;32.44;38.01
56630;BME280;42502;40.732;-74.254;2023-08-07T06:00:24;100481.78;;;32.42;38.00
56630;BME280;42502;40.732;-74.254;2023-08-07T06:02:25;100463.56;;;32.36;37.87
56630;BME280;42502;40.732;-74.254;2023-08-07T06:04:27;100472.88;;;32.40;37.93
56630;BME280;42502;40.732;-74.254;2023-08-07T06:06:27;100473.31;;;32.39;37.81
56630;BME280;42502;40.732;-74.254;2023-08-07T06:08:28;100481.06;;;32.38;37.71
56630;BME280;42502;40.732;-74.254;2023-08-07T06:10:32;100476.59;;;32.37;37.97
56630;BME280;42502;40.732;-74.254;2023-08-07T06:12:35;100472.47;;;32.38;37.76
56630;BME280;42502;40.732;-74.254;2023-08-07T06:14:37;100472.13;;;32.36;38.01
56630;BME280;42502;40.732;-74.254;2023-08-07T06:16:38;100482.31;;;32.37;38.14
56630;BME280;42502;40.732;-74.254;2023-08-07T06:18:39;100472.13;;;32.36;37.91
56630;BME280;42502;40.732;-74.254;2023-08-07T06:20:39;100472.94;;;32.37;37.96
56630;BME280;42502;40.732;-74.254;2023-08-07T06:22:40;100476.22;;;32.35;38.07
56630;BME280;42502;40.732;-74.254;2023-08-07T06:24:41;100468.53;;;32.32;38.23
56630;BME280;42502;40.732;-74.254;2023-08-07T06:26:45;100470.94;;;32.34;38.07
56630;BME280;42502;40.732;-74.254;2023-08-07T06:28:48;100465.22;;;32.34;37.66
56630;BME280;42502;40.732;-74.254;2023-08-07T06:30:49;100465.22;;;32.34;38.02
56630;BME280;42502;40.732;-74.254;2023-08-07T06:32:50;100466.50;;;32.33;38.01
56630;BME280;42502;40.732;-74.254;2023-08-07T06:34:54;100464.09;;;32.31;37.74
56630;BME280;42502;40.732;-74.254;2023-08-07T06:36:54;100458.97;;;32.22;38.06
56630;BME280;42502;40.732;-74.254;2023-08-07T06:38:55;100466.13;;;32.31;38.28
56630;BME280;42502;40.732;-74.254;2023-08-07T06:40:57;100471.47;;;32.29;38.17
56630;BME280;42502;40.732;-74.254;2023-08-07T06:43:00;100470.31;;;32.26;38.07
56630;BME280;42502;40.732;-74.254;2023-08-07T06:45:00;100466.22;;;32.27;38.26
56630;BME280;42502;40.732;-74.254;2023-08-07T06:47:01;100477.19;;;32.29;37.97
56630;BME280;42502;40.732;-74.254;2023-08-07T06:49:05;100471.94;;;32.27;38.27
56630;BME280;42502;40.732;-74.254;2023-08-07T06:51:06;100471.13;;;32.27;37.70
56630;BME280;42502;40.732;-74.254;2023-08-07T06:53:09;100466.66;;;32.26;38.23
56630;BME280;42502;40.732;-74.254;2023-08-07T06:55:10;100468.28;;;32.27;38.06
56630;BME280;42502;40.732;-74.254;2023-08-07T06:57:13;100464.22;;;32.24;38.12
56630;BME280;42502;40.732;-74.254;2023-08-07T06:59:17;100461.38;;;32.24;38.35
56630;BME280;42502;40.732;-74.254;2023-08-07T07:01:18;100467.88;;;32.24;37.80
56630;BME280;42502;40.732;-74.254;2023-08-07T07:03:24;100467.88;;;32.24;37.89
56630;BME280;42502;40.732;-74.254;2023-08-07T07:05:25;100465.84;;;32.25;37.74
56630;BME280;42502;40.732;-74.254;2023-08-07T07:07:26;100463.84;;;32.22;37.62
56630;BME280;42502;40.732;-74.254;2023-08-07T07:09:27;100461.00;;;32.22;38.08
56630;BME280;42502;40.732;-74.254;2023-08-07T07:11:29;100459.41;;;32.21;38.14
56630;BME280;42502;40.732;-74.254;2023-08-07T07:13:30;100465.91;;;32.21;37.78
56630;BME280;42502;40.732;-74.254;2023-08-07T07:15:31;100457.44;;;32.18;38.11
56630;BME280;42502;40.732;-74.254;2023-08-07T07:17:32;100464.72;;;32.19;37.92
56630;BME280;42502;40.732;-74.254;2023-08-07T07:19:33;100462.69;;;32.19;38.08
56630;BME280;42502;40.732;-74.254;2023-08-07T07:21:33;100461.88;;;32.19;38.35
56630;BME280;42502;40.732;-74.254;2023-08-07T07:23:38;100457.88;;;32.16;38.00
56630;BME280;42502;40.732;-74.254;2023-08-07T07:25:38;100470.44;;;32.19;38.21
56630;BME280;42502;40.732;-74.254;2023-08-07T07:27:39;100456.69;;;32.14;38.14
56630;BME280;42502;40.732;-74.254;2023-08-07T07:29:41;100463.59;;;32.16;37.98
56630;BME280;42502;40.732;-74.254;2023-08-07T07:31:41;100463.59;;;32.16;38.34
56630;BME280;42502;40.732;-74.254;2023-08-07T07:33:42;100437.34;;;32.01;38.30
56630;BME280;42502;40.732;-74.254;2023-08-07T07:35:43;100462.41;;;32.14;38.25
56630;BME280;42502;40.732;-74.254;2023-08-07T07:37:44;100455.91;;;32.13;37.78
56630;BME280;42502;40.732;-74.254;2023-08-07T07:39:45;100450.97;;;32.14;37.91
56630;BME280;42502;40.732;-74.254;2023-08-07T07:41:46;100455.91;;;32.13;38.42
56630;BME280;42502;40.732;-74.254;2023-08-07T07:43:47;100452.66;;;32.11;37.90
56630;BME280;42502;40.732;-74.254;2023-08-07T07:45:48;100455.50;;;32.11;37.94
56630;BME280;42502;40.732;-74.254;2023-08-07T07:47:48;100450.22;;;32.10;38.19
56630;BME280;42502;40.732;-74.254;2023-08-07T07:50:04;100440.03;;;32.09;37.94
56630;BME280;42502;40.732;-74.254;2023-08-07T07:52:06;100444.50;;;32.10;38.09
56630;BME280;42502;40.732;-74.254;2023-08-07T07:54:07;100437.19;;;32.09;38.39
56630;BME280;42502;40.732;-74.254;2023-08-07T07:56:08;100437.97;;;32.09;37.96
56630;BME280;42502;40.732;-74.254;2023-08-07T07:58:12;100430.28;;;32.06;38.21
56630;BME280;42502;40.732;-74.254;2023-08-07T08:00:13;100421.72;;;32.06;38.33
56630;BME280;42502;40.732;-74.254;2023-08-07T08:02:14;100433.50;;;32.08;38.21
56630;BME280;42502;40.732;-74.254;2023-08-07T08:04:16;100441.28;;;32.08;38.28
56630;BME280;42502;40.732;-74.254;2023-08-07T08:06:17;100438.88;;;32.06;37.94
56630;BME280;42502;40.732;-74.254;2023-08-07T08:08:21;100442.97;;;32.05;38.53
56630;BME280;42502;40.732;-74.254;2023-08-07T08:10:22;100420.53;;;32.03;38.61
56630;BME280;42502;40.732;-74.254;2023-08-07T08:12:22;100420.09;;;32.05;38.42
56630;BME280;42502;40.732;-74.254;2023-08-07T08:14:23;100419.31;;;32.04;38.30
56630;BME280;42502;40.732;-74.254;2023-08-07T08:16:24;100417.25;;;32.05;38.49
56630;BME280;42502;40.732;-74.254;2023-08-07T08:18:27;100411.53;;;32.05;38.66
56630;BME280;42502;40.732;-74.254;2023-08-07T08:20:29;100402.97;;;32.05;38.72
56630;BME280;42502;40.732;-74.254;2023-08-07T08:22:31;100402.16;;;32.04;38.46
56630;BME280;42502;40.732;-74.254;2023-08-07T08:24:32;100406.25;;;32.03;38.69
56630;BME280;42502;40.732;-74.254;2023-08-07T08:26:33;100398.97;;;32.02;38.59
56630;BME280;42502;40.732;-74.254;2023-08-07T08:28:37;100406.69;;;32.02;38.76
56630;BME280;42502;40.732;-74.254;2023-08-07T08:30:38;100400.53;;;32.03;38.88
56630;BME280;42502;40.732;-74.254;2023-08-07T08:32:39;100398.97;;;32.02;38.55
56630;BME280;42502;40.732;-74.254;2023-08-07T08:34:40;100397.34;;;32.01;39.04
56630;BME280;42502;40.732;-74.254;2023-08-07T08:36:41;100381.22;;;31.91;39.04
56630;BME280;42502;40.732;-74.254;2023-08-07T08:38:41;100392.94;;;31.97;38.90
56630;BME280;42502;40.732;-74.254;2023-08-07T08:40:44;100405.09;;;32.01;39.02
56630;BME280;42502;40.732;-74.254;2023-08-07T08:42:46;100408.75;;;32.01;38.70
56630;BME280;42502;40.732;-74.254;2023-08-07T08:44:56;100406.78;;;31.98;38.80
56630;BME280;42502;40.732;-74.254;2023-08-07T08:47:00;100412.50;;;31.98;38.86
56630;BME280;42502;40.732;-74.254;2023-08-07T08:49:01;100399.84;;;31.99;38.61
56630;BME280;42502;40.732;-74.254;2023-08-07T08:51:08;100402.31;;;31.97;39.19
56630;BME280;42502;40.732;-74.254;2023-08-07T08:53:09;100388.41;;;31.99;39.26
56630;BME280;42502;40.732;-74.254;2023-08-07T08:55:11;100401.06;;;31.98;38.96
56630;BME280;42502;40.732;-74.254;2023-08-07T08:57:12;100405.16;;;31.97;39.27
56630;BME280;42502;40.732;-74.254;2023-08-07T08:59:13;100403.94;;;31.98;38.80
56630;BME280;42502;40.732;-74.254;2023-08-07T09:01:15;100410.88;;;31.97;38.95
56630;BME280;42502;40.732;-74.254;2023-08-07T09:03:18;100410.09;;;31.97;39.02
56630;BME280;42502;40.732;-74.254;2023-08-07T09:05:20;100417.84;;;31.96;38.74
56630;BME280;42502;40.732;-74.254;2023-08-07T09:07:22;100423.19;;;31.94;39.27
56630;BME280;42502;40.732;-74.254;2023-08-07T09:09:23;100411.75;;;31.94;38.91
56630;BME280;42502;40.732;-74.254;2023-08-07T09:11:25;100407.66;;;31.95;39.17
56630;BME280;42502;40.732;-74.254;2023-08-07T09:13:28;100403.19;;;31.94;38.88
56630;BME280;42502;40.732;-74.254;2023-08-07T09:15:31;100397.13;;;31.92;39.04
56630;BME280;42502;40.732;-74.254;2023-08-07T09:17:39;100401.22;;;31.91;39.02
56630;BME280;42502;40.732;-74.254;2023-08-07T09:19:40;100407.72;;;31.92;39.29
56630;BME280;42502;40.732;-74.254;2023-08-07T09:21:41;100412.19;;;31.93;38.92
56630;BME280;42502;40.732;-74.254;2023-08-07T09:23:42;100417.13;;;31.92;39.35
56630;BME280;42502;40.732;-74.254;2023-08-07T09:25:44;100408.16;;;31.90;38.92
56630;BME280;42502;40.732;-74.254;2023-08-07T09:27:45;100412.66;;;31.91;39.36
56630;BME280;42502;40.732;-74.254;2023-08-07T09:29:46;100404.59;;;31.86;39.52
56630;BME280;42502;40.732;-74.254;2023-08-07T09:31:47;100403.72;;;31.89;39.03
56630;BME280;42502;40.732;-74.254;2023-08-07T09:33:48;100407.03;;;31.87;38.98
56630;BME280;42502;40.732;-74.254;2023-08-07T09:35:49;100402.09;;;31.88;39.08
56630;BME280;42502;40.732;-74.254;2023-08-07T09:37:50;100394.31;;;31.88;39.36
56630;BME280;42502;40.732;-74.254;2023-08-07T09:39:52;100393.53;;;31.88;39.04
56630;BME280;42502;40.732;-74.254;2023-08-07T09:41:52;100387.47;;;31.86;39.40
56630;BME280;42502;40.732;-74.254;2023-08-07T09:43:57;100390.31;;;31.86;39.15
56630;BME280;42502;40.732;-74.254;2023-08-07T09:46:05;100389.94;;;31.84;39.06
56630;BME280;42502;40.732;-74.254;2023-08-07T09:48:09;100394.41;;;31.85;39.12
56630;BME280;42502;40.732;-74.254;2023-08-07T09:50:15;100395.66;;;31.84;39.13
56630;BME280;42502;40.732;-74.254;2023-08-07T09:52:19;100396.47;;;31.84;38.87
56630;BME280;42502;40.732;-74.254;2023-08-07T09:54:20;100396.84;;;31.86;39.08
56630;BME280;42502;40.732;-74.254;2023-08-07T09:56:24;100397.72;;;31.83;39.18
56630;BME280;42502;40.732;-74.254;2023-08-07T09:58:25;100382.34;;;31.77;39.22
56630;BME280;42502;40.732;-74.254;2023-08-07T10:00:26;100401.00;;;31.82;39.58
56630;BME280;42502;40.732;-74.254;2023-08-07T10:02:28;100385.28;;;31.74;39.10
56630;BME280;42502;40.732;-74.254;2023-08-07T10:04:30;100396.97;;;31.79;39.34
56630;BME280;42502;40.732;-74.254;2023-08-07T10:06:31;100381.81;;;31.62;39.30
56630;BME280;42502;40.732;-74.254;2023-08-07T10:08:32;100392.97;;;31.77;39.25
56630;BME280;42502;40.732;-74.254;2023-08-07T10:10:37;100397.06;;;31.76;39.06
56630;BME280;42502;40.732;-74.254;2023-08-07T10:12:38;100397.06;;;31.76;39.43
56630;BME280;42502;40.732;-74.254;2023-08-07T10:14:40;100388.94;;;31.74;39.14
56630;BME280;42502;40.732;-74.254;2023-08-07T10:16:42;100391.00;;;31.74;39.18
56630;BME280;42502;40.732;-74.254;2023-08-07T10:18:43;100395.44;;;31.75;39.19
56630;BME280;42502;40.732;-74.254;2023-08-07T10:20:44;100385.72;;;31.72;39.55
56630;BME280;42502;40.732;-74.254;2023-08-07T10:22:46;100384.53;;;31.69;39.09
56630;BME280;42502;40.732;-74.254;2023-08-07T10:24:48;100388.56;;;31.72;39.30